createdAt,value
2017-05-08T00:00:52.375Z,39.76
2017-05-08T00:02:02.269Z,39.76
2017-05-08T00:03:11.878Z,39.76
2017-05-08T00:04:22.091Z,39.86
2017-05-08T00:05:32.343Z,40.05
2017-05-08T00:06:42.547Z,39.95
2017-05-08T00:07:52.749Z,39.86
2017-05-08T00:09:02.655Z,39.76
2017-05-08T00:10:12.867Z,39.95
2017-05-08T00:11:23.069Z,40.05
2017-05-08T00:12:33.305Z,39.76
2017-05-08T00:13:42.599Z,39.95
2017-05-08T00:14:52.506Z,40.15
2017-05-08T00:16:02.414Z,39.76
2017-05-08T00:17:12.162Z,39.95
2017-05-08T00:18:22.365Z,39.76
2017-05-08T00:19:32.278Z,39.95
2017-05-08T00:20:42.196Z,40.15
2017-05-08T00:21:52.414Z,39.95
2017-05-08T00:23:02.467Z,39.76
2017-05-08T00:24:12.063Z,40.15
2017-05-08T00:25:21.973Z,39.76
2017-05-08T00:26:31.869Z,40.15
2017-05-08T00:27:42.089Z,39.76
2017-05-08T00:28:52.453Z,39.86
2017-05-08T00:30:02.056Z,40.05
2017-05-08T00:31:11.652Z,40.05
2017-05-08T00:32:21.565Z,40.05
2017-05-08T00:33:31.479Z,40.05
2017-05-08T00:34:41.548Z,39.76
2017-05-08T00:35:51.452Z,40.24
2017-05-08T00:37:01.354Z,39.86
2017-05-08T00:38:10.955Z,39.76
2017-05-08T00:39:21.170Z,40.15
2017-05-08T00:40:31.417Z,39.76
2017-05-08T00:41:41.011Z,40.15
2017-05-08T00:42:51.256Z,39.95
2017-05-08T00:44:00.246Z,40.15
2017-05-08T00:45:10.155Z,39.66
2017-05-08T00:46:20.214Z,40.15
2017-05-08T00:47:30.416Z,40.15
2017-05-08T00:48:40.657Z,39.95
2017-05-08T00:49:50.574Z,40.05
2017-05-08T00:51:00.788Z,40.05
2017-05-08T00:52:10.537Z,40.15
2017-05-08T00:53:20.436Z,39.95
2017-05-08T00:54:30.036Z,40.15
2017-05-08T00:55:39.940Z,39.95
2017-05-08T00:56:50.154Z,40.15
2017-05-08T00:58:00.704Z,40.15
2017-05-08T00:59:10.616Z,39.66
2017-05-08T01:00:20.522Z,40.15
2017-05-08T01:01:30.437Z,39.95
2017-05-08T01:02:40.637Z,40.05
2017-05-08T01:03:51.102Z,39.95
2017-05-08T01:05:00.387Z,39.86
2017-05-08T01:06:10.292Z,39.95
2017-05-08T01:07:20.519Z,39.86
2017-05-08T01:08:30.426Z,39.76
2017-05-08T01:09:40.900Z,39.86
2017-05-08T01:10:50.796Z,39.95
2017-05-08T01:12:00.697Z,40.05
2017-05-08T01:13:10.912Z,39.95
2017-05-08T01:14:21.120Z,40.05
2017-05-08T01:15:31.582Z,39.95
2017-05-08T01:16:41.508Z,39.66
2017-05-08T01:17:51.715Z,39.86
2017-05-08T01:19:01.610Z,39.66
2017-05-08T01:20:11.516Z,39.95
2017-05-08T01:21:21.818Z,39.76
2017-05-08T01:22:32.030Z,39.95
2017-05-08T01:23:41.927Z,39.86
2017-05-08T01:24:51.835Z,39.76
2017-05-08T01:26:01.816Z,39.86
2017-05-08T01:27:11.274Z,39.86
2017-05-08T01:28:21.173Z,39.86
2017-05-08T01:29:31.387Z,39.66
2017-05-08T01:30:41.300Z,39.86
2017-05-08T01:31:51.208Z,39.66
2017-05-08T01:33:01.690Z,39.76
2017-05-08T01:34:11.585Z,39.66
2017-05-08T01:35:21.504Z,39.76
2017-05-08T01:36:31.723Z,40.05
2017-05-08T01:37:41.634Z,39.66
2017-05-08T01:38:51.389Z,39.76
2017-05-08T01:40:01.603Z,39.86
2017-05-08T01:41:11.205Z,39.86
2017-05-08T01:42:20.811Z,39.95
2017-05-08T01:43:30.718Z,39.95
2017-05-08T01:44:40.159Z,39.95
2017-05-08T01:45:50.391Z,39.95
2017-05-08T01:47:00.299Z,40.05
2017-05-08T01:48:09.913Z,39.86
2017-05-08T01:49:19.822Z,39.76
2017-05-08T01:50:30.035Z,39.95
2017-05-08T01:51:39.964Z,39.95
2017-05-08T01:52:49.574Z,39.95
2017-05-08T01:53:59.472Z,39.94
2017-05-08T01:55:09.684Z,39.95
2017-05-08T01:56:19.689Z,40.05
2017-05-08T01:57:29.298Z,39.95
2017-05-08T01:58:39.502Z,40.05
2017-05-08T01:59:49.436Z,40.05
2017-05-08T02:00:59.360Z,39.86
2017-05-08T02:02:09.423Z,39.95
2017-05-08T02:03:19.316Z,39.74
2017-05-08T02:04:28.302Z,39.86
2017-05-08T02:05:38.536Z,39.66
2017-05-08T02:06:48.744Z,39.84
2017-05-08T02:07:59.114Z,39.74
2017-05-08T02:09:09.014Z,39.94
2017-05-08T02:10:19.228Z,39.95
2017-05-08T02:11:29.152Z,39.84
2017-05-08T02:12:39.364Z,39.74
2017-05-08T02:13:48.706Z,39.94
2017-05-08T02:14:58.609Z,39.74
2017-05-08T02:16:08.505Z,39.84
2017-05-08T02:17:18.716Z,39.84
2017-05-08T02:18:28.303Z,39.74
2017-05-08T02:19:38.206Z,39.84
2017-05-08T02:20:48.115Z,39.94
2017-05-08T02:21:57.705Z,39.74
2017-05-08T02:23:07.625Z,39.74
2017-05-08T02:24:17.833Z,39.74
2017-05-08T02:25:28.153Z,39.84
2017-05-08T02:26:38.366Z,39.74
2017-05-08T02:27:48.580Z,39.74
2017-05-08T02:28:57.878Z,39.74
2017-05-08T02:30:07.781Z,39.74
2017-05-08T02:31:17.368Z,39.74
2017-05-08T02:32:26.968Z,39.84
2017-05-08T02:33:37.184Z,39.74
2017-05-08T02:34:47.389Z,39.74
2017-05-08T02:35:57.296Z,39.74
2017-05-08T02:37:06.695Z,39.74
2017-05-08T02:38:16.892Z,39.74
2017-05-08T02:39:27.111Z,39.74
2017-05-08T02:40:37.009Z,39.74
2017-05-08T02:41:46.912Z,39.74
2017-05-08T02:42:57.111Z,39.74
2017-05-08T02:44:07.322Z,39.84
2017-05-08T02:45:17.546Z,39.74
2017-05-08T02:46:27.463Z,39.74
2017-05-08T02:47:37.060Z,39.94
2017-05-08T02:48:46.811Z,39.84
2017-05-08T02:49:56.738Z,39.84
2017-05-08T02:51:06.941Z,39.74
2017-05-08T02:52:16.842Z,39.94
2017-05-08T02:53:27.054Z,39.54
2017-05-08T02:54:37.063Z,39.94
2017-05-08T02:55:46.992Z,39.54
2017-05-08T02:56:57.242Z,39.94
2017-05-08T02:58:06.837Z,39.54
2017-05-08T02:59:16.747Z,39.54
2017-05-08T03:00:27.275Z,39.74
2017-05-08T03:01:37.502Z,39.74
2017-05-08T03:02:47.399Z,39.74
2017-05-08T03:03:56.703Z,39.74
2017-05-08T03:05:06.911Z,39.74
2017-05-08T03:06:16.966Z,39.54
2017-05-08T03:07:26.867Z,39.54
2017-05-08T03:08:36.775Z,39.45
2017-05-08T03:09:46.978Z,39.26
2017-05-08T03:10:57.189Z,39.16
2017-05-08T03:12:07.096Z,39.54
2017-05-08T03:13:16.394Z,39.16
2017-05-08T03:14:26.301Z,39.26
2017-05-08T03:15:36.510Z,39.54
2017-05-08T03:16:46.457Z,39.26
2017-05-08T03:17:56.715Z,39.54
2017-05-08T03:19:06.639Z,39.16
2017-05-08T03:20:16.876Z,39.45
2017-05-08T03:21:27.083Z,39.26
2017-05-08T03:22:37.290Z,39.54
2017-05-08T03:23:47.544Z,39.54
2017-05-08T03:24:57.464Z,39.54
2017-05-08T03:26:07.668Z,39.54
2017-05-08T03:27:17.878Z,39.36
2017-05-08T03:28:27.784Z,39.16
2017-05-08T03:29:37.492Z,39.36
2017-05-08T03:30:47.390Z,39.26
2017-05-08T03:31:57.283Z,39.54
2017-05-08T03:33:06.883Z,39.45
2017-05-08T03:34:16.788Z,39.45
2017-05-08T03:35:26.946Z,39.45
2017-05-08T03:36:36.543Z,39.36
2017-05-08T03:37:46.483Z,39.36
2017-05-08T03:38:56.695Z,39.45
2017-05-08T03:40:06.915Z,39.45
2017-05-08T03:41:16.758Z,39.36
2017-05-08T03:42:26.662Z,39.36
2017-05-08T03:43:36.564Z,39.54
2017-05-08T03:44:46.460Z,39.45
2017-05-08T03:45:56.661Z,39.54
2017-05-08T03:47:06.659Z,39.54
2017-05-08T03:48:16.258Z,39.54
2017-05-08T03:49:26.169Z,39.54
2017-05-08T03:50:36.090Z,39.54
2017-05-08T03:51:46.303Z,39.45
2017-05-08T03:52:56.510Z,39.45
2017-05-08T03:54:06.732Z,39.54
2017-05-08T03:55:16.641Z,39.45
2017-05-08T03:56:26.566Z,39.45
2017-05-08T03:57:36.470Z,39.45
2017-05-08T03:58:46.420Z,39.54
2017-05-08T03:59:56.021Z,39.45
2017-05-08T04:01:06.237Z,39.54
2017-05-08T04:02:16.458Z,39.36
2017-05-08T04:03:26.370Z,39.45
2017-05-08T04:04:36.938Z,39.54
2017-05-08T04:05:46.846Z,39.54
2017-05-08T04:06:57.059Z,39.54
2017-05-08T04:08:07.296Z,39.54
2017-05-08T04:09:16.897Z,39.64
2017-05-08T04:10:27.408Z,39.06
2017-05-08T04:11:37.334Z,39.16
2017-05-08T04:12:46.967Z,38.97
2017-05-08T04:13:56.869Z,38.97
2017-05-08T04:15:07.080Z,39.16
2017-05-08T04:16:17.027Z,39.06
2017-05-08T04:17:27.242Z,39.06
2017-05-08T04:18:36.847Z,38.97
2017-05-08T04:19:47.071Z,38.97
2017-05-08T04:20:56.999Z,38.97
2017-05-08T04:22:07.211Z,38.97
2017-05-08T04:23:17.468Z,38.87
2017-05-08T04:24:27.684Z,39.06
2017-05-08T04:25:37.292Z,38.87
2017-05-08T04:26:47.205Z,38.97
2017-05-08T04:27:57.492Z,38.87
2017-05-08T04:29:07.390Z,38.87
2017-05-08T04:30:17.335Z,39.16
2017-05-08T04:31:27.267Z,38.97
2017-05-08T04:32:37.171Z,39.06
2017-05-08T04:33:47.170Z,38.97
2017-05-08T04:34:57.085Z,39.36
2017-05-08T04:36:07.333Z,38.97
2017-05-08T04:37:17.539Z,39.06
2017-05-08T04:38:27.149Z,38.97
2017-05-08T04:39:37.681Z,38.97
2017-05-08T04:40:47.596Z,39.16
2017-05-08T04:41:57.504Z,38.97
2017-05-08T04:43:07.423Z,38.97
2017-05-08T04:44:17.065Z,38.87
2017-05-08T04:45:26.671Z,39.36
2017-05-08T04:46:36.012Z,39.16
2017-05-08T04:47:45.649Z,39.16
2017-05-08T04:48:55.584Z,39.26
2017-05-08T04:50:05.207Z,39.36
2017-05-08T04:51:15.836Z,39.36
2017-05-08T04:52:25.146Z,39.45
2017-05-08T04:53:35.067Z,39.45
2017-05-08T04:54:44.414Z,39.45
2017-05-08T04:55:53.707Z,39.45
2017-05-08T04:57:03.331Z,39.45
2017-05-08T04:58:12.933Z,39.36
2017-05-08T04:59:23.144Z,39.36
2017-05-08T05:00:32.750Z,39.26
2017-05-08T05:01:42.353Z,39.16
2017-05-08T05:02:52.200Z,38.87
2017-05-08T05:04:02.430Z,38.49
2017-05-08T05:05:12.690Z,38.58
2017-05-08T05:06:22.306Z,38.7
2017-05-08T05:07:32.518Z,38.12
2017-05-08T05:08:42.755Z,38.31
2017-05-08T05:09:53.020Z,38.41
2017-05-08T05:11:03.255Z,38.41
2017-05-08T05:12:13.552Z,38.31
2017-05-08T05:13:23.453Z,38.12
2017-05-08T05:14:33.807Z,37.93
2017-05-08T05:15:43.729Z,37.73
2017-05-08T05:16:53.653Z,37.73
2017-05-08T05:18:03.590Z,37.95
2017-05-08T05:19:13.514Z,37.75
2017-05-08T05:20:23.975Z,37.85
2017-05-08T05:21:33.575Z,37.65
2017-05-08T05:22:43.470Z,37.65
2017-05-08T05:23:53.689Z,37.56
2017-05-08T05:25:03.291Z,37.38
2017-05-08T05:26:13.345Z,37.27
2017-05-08T05:27:23.570Z,37.1
2017-05-08T05:28:33.774Z,36.9
2017-05-08T05:29:43.678Z,37.19
2017-05-08T05:30:53.883Z,37.1
2017-05-08T05:32:03.931Z,37.1
2017-05-08T05:33:13.522Z,37
2017-05-08T05:34:23.731Z,37
2017-05-08T05:35:33.624Z,36.9
2017-05-08T05:36:43.234Z,36.82
2017-05-08T05:37:53.436Z,36.82
2017-05-08T05:39:03.047Z,36.82
2017-05-08T05:40:12.962Z,36.72
2017-05-08T05:41:22.875Z,36.92
2017-05-08T05:42:33.136Z,36.72
2017-05-08T05:43:43.310Z,36.72
2017-05-08T05:44:53.214Z,36.82
2017-05-08T05:46:03.116Z,36.82
2017-05-08T05:47:12.714Z,36.82
2017-05-08T05:48:22.636Z,36.72
2017-05-08T05:49:32.510Z,36.72
2017-05-08T05:50:42.717Z,36.74
2017-05-08T05:51:53.303Z,36.72
2017-05-08T05:53:03.206Z,36.82
2017-05-08T05:54:13.419Z,36.65
2017-05-08T05:55:23.325Z,36.82
2017-05-08T05:56:33.227Z,36.84
2017-05-08T05:57:42.828Z,36.74
2017-05-08T05:58:52.734Z,36.74
2017-05-08T06:00:02.641Z,36.94
2017-05-08T06:01:13.020Z,36.84
2017-05-08T06:02:22.929Z,36.82
2017-05-08T06:03:33.139Z,36.72
2017-05-08T06:04:43.350Z,37.02
2017-05-08T06:05:53.263Z,36.82
2017-05-08T06:07:03.462Z,36.92
2017-05-08T06:08:13.673Z,37.02
2017-05-08T06:09:23.891Z,37.02
2017-05-08T06:10:34.110Z,37.02
2017-05-08T06:11:44.019Z,37.12
2017-05-08T06:12:54.275Z,37.21
2017-05-08T06:14:04.498Z,37.21
2017-05-08T06:15:14.699Z,36.82
2017-05-08T06:16:24.604Z,37.02
2017-05-08T06:17:34.196Z,37.12
2017-05-08T06:18:43.938Z,37.4
2017-05-08T06:19:53.862Z,37.3
2017-05-08T06:21:04.073Z,37.4
2017-05-08T06:22:13.977Z,37.4
2017-05-08T06:23:24.199Z,37.3
2017-05-08T06:24:34.766Z,37.3
2017-05-08T06:25:44.060Z,37.38
2017-05-08T06:26:53.960Z,37.3
2017-05-08T06:28:04.164Z,37.5
2017-05-08T06:29:14.413Z,37.5
2017-05-08T06:30:24.573Z,37.6
2017-05-08T06:31:34.801Z,37.67
2017-05-08T06:32:44.407Z,37.67
2017-05-08T06:33:54.615Z,37.67
2017-05-08T06:35:04.841Z,37.67
2017-05-08T06:36:14.244Z,37.67
2017-05-08T06:37:24.156Z,37.67
2017-05-08T06:38:34.071Z,37.96
2017-05-08T06:39:43.999Z,37.96
2017-05-08T06:40:54.216Z,37.96
2017-05-08T06:42:04.584Z,37.58
2017-05-08T06:43:14.803Z,37.77
2017-05-08T06:44:25.015Z,37.77
2017-05-08T06:45:35.237Z,37.77
2017-05-08T06:46:45.464Z,37.77
2017-05-08T06:47:55.615Z,37.67
2017-05-08T06:49:04.915Z,37.77
2017-05-08T06:50:15.147Z,38.06
2017-05-08T06:51:25.388Z,37.96
2017-05-08T06:52:35.608Z,37.96
2017-05-08T06:53:45.365Z,37.96
2017-05-08T06:54:55.567Z,37.77
2017-05-08T06:56:05.496Z,37.77
2017-05-08T06:57:15.102Z,37.77
2017-05-08T06:58:25.025Z,37.67
2017-05-08T06:59:35.396Z,37.67
2017-05-08T07:00:45.309Z,37.67
2017-05-08T07:01:55.221Z,37.77
2017-05-08T07:03:05.137Z,37.77
2017-05-08T07:04:15.376Z,37.67
2017-05-08T07:05:25.443Z,37.77
2017-05-08T07:06:35.663Z,37.96
2017-05-08T07:07:45.877Z,38.16
2017-05-08T07:08:55.181Z,37.67
2017-05-08T07:10:04.800Z,37.87
2017-05-08T07:11:14.957Z,37.77
2017-05-08T07:12:24.866Z,37.65
2017-05-08T07:13:35.088Z,37.85
2017-05-08T07:14:44.710Z,37.77
2017-05-08T07:15:54.625Z,37.77
2017-05-08T07:17:04.576Z,37.65
2017-05-08T07:18:14.492Z,37.77
2017-05-08T07:19:24.103Z,37.75
2017-05-08T07:20:34.016Z,37.75
2017-05-08T07:21:43.628Z,37.95
2017-05-08T07:22:54.162Z,37.65
2017-05-08T07:24:04.108Z,37.75
2017-05-08T07:25:14.064Z,37.95
2017-05-08T07:26:24.279Z,37.65
2017-05-08T07:27:33.884Z,37.77
2017-05-08T07:28:44.147Z,37.77
2017-05-08T07:29:53.449Z,37.75
2017-05-08T07:31:03.365Z,38.06
2017-05-08T07:32:13.289Z,37.87
2017-05-08T07:33:23.205Z,37.77
2017-05-08T07:34:33.429Z,37.65
2017-05-08T07:35:43.650Z,37.77
2017-05-08T07:36:53.253Z,37.87
2017-05-08T07:38:03.174Z,37.58
2017-05-08T07:39:13.403Z,37.96
2017-05-08T07:40:23.665Z,37.87
2017-05-08T07:41:33.897Z,37.87
2017-05-08T07:42:44.121Z,37.77
2017-05-08T07:43:54.038Z,37.87
2017-05-08T07:45:03.649Z,37.77
2017-05-08T07:46:14.046Z,37.77
2017-05-08T07:47:23.649Z,37.77
2017-05-08T07:48:33.559Z,37.67
2017-05-08T07:49:43.195Z,37.67
2017-05-08T07:50:52.488Z,37.77
2017-05-08T07:52:02.398Z,37.58
2017-05-08T07:53:12.304Z,37.77
2017-05-08T07:54:22.525Z,37.87
2017-05-08T07:55:32.439Z,37.87
2017-05-08T07:56:42.355Z,37.77
2017-05-08T07:57:52.110Z,37.67
2017-05-08T07:59:01.713Z,37.87
2017-05-08T08:00:11.928Z,37.58
2017-05-08T08:01:21.238Z,37.58
2017-05-08T08:02:31.459Z,37.67
2017-05-08T08:03:41.975Z,37.58
2017-05-08T08:04:51.579Z,37.67
2017-05-08T08:06:01.190Z,37.67
2017-05-08T08:07:10.794Z,37.67
2017-05-08T08:08:20.705Z,37.77
2017-05-08T08:09:30.712Z,37.67
2017-05-08T08:10:40.013Z,37.77
2017-05-08T08:11:50.229Z,37.58
2017-05-08T08:13:00.140Z,37.58
2017-05-08T08:14:10.053Z,37.67
2017-05-08T08:15:20.069Z,37.67
2017-05-08T08:16:29.360Z,37.67
2017-05-08T08:17:38.970Z,37.67
2017-05-08T08:18:48.883Z,37.58
2017-05-08T08:19:58.186Z,37.67
2017-05-08T08:21:08.252Z,37.67
2017-05-08T08:22:18.474Z,37.58
2017-05-08T08:23:28.083Z,37.58
2017-05-08T08:24:38.010Z,37.48
2017-05-08T08:25:47.623Z,37.38
2017-05-08T08:26:57.078Z,37.29
2017-05-08T08:28:07.317Z,37.29
2017-05-08T08:29:17.241Z,37.38
2017-05-08T08:30:27.158Z,37.38
2017-05-08T08:31:37.406Z,37.38
2017-05-08T08:32:47.431Z,37.38
2017-05-08T08:33:57.023Z,37.38
2017-05-08T08:35:06.652Z,37.38
2017-05-08T08:36:16.567Z,37.29
2017-05-08T08:37:26.497Z,37.29
2017-05-08T08:38:36.710Z,37.38
2017-05-08T08:39:46.617Z,37.38
2017-05-08T08:40:55.923Z,37.48
2017-05-08T08:42:05.535Z,37.48
2017-05-08T08:43:15.133Z,37.38
2017-05-08T08:44:25.414Z,37.38
2017-05-08T08:45:34.718Z,37.29
2017-05-08T08:46:44.636Z,37.38
2017-05-08T08:47:54.872Z,37.29
2017-05-08T08:49:04.783Z,37.29
2017-05-08T08:50:15.293Z,37.29
2017-05-08T08:51:24.900Z,37.29
2017-05-08T08:52:34.820Z,37.29
2017-05-08T08:53:45.040Z,37.29
2017-05-08T08:54:54.658Z,37.19
2017-05-08T08:56:04.883Z,37.29
2017-05-08T08:57:14.195Z,37.29
2017-05-08T08:58:23.803Z,37.29
2017-05-08T08:59:33.731Z,37.29
2017-05-08T09:00:43.967Z,37.29
2017-05-08T09:01:53.528Z,37.29
2017-05-08T09:03:02.831Z,37.29
2017-05-08T09:04:12.756Z,37.29
2017-05-08T09:05:22.680Z,37.19
2017-05-08T09:06:32.606Z,37
2017-05-08T09:07:42.496Z,37
2017-05-08T09:08:52.604Z,37.1
2017-05-08T09:10:02.215Z,36.9
2017-05-08T09:11:12.449Z,37.38
2017-05-08T09:12:22.357Z,37
2017-05-08T09:13:32.576Z,37.48
2017-05-08T09:14:42.483Z,37
2017-05-08T09:15:51.768Z,37
2017-05-08T09:17:01.380Z,36.9
2017-05-08T09:18:11.304Z,36.9
2017-05-08T09:19:21.831Z,36.9
2017-05-08T09:20:32.042Z,36.8
2017-05-08T09:21:41.959Z,37.19
2017-05-08T09:22:51.872Z,37.29
2017-05-08T09:24:01.491Z,37.19
2017-05-08T09:25:11.862Z,37.29
2017-05-08T09:26:20.850Z,37.1
2017-05-08T09:27:30.466Z,37.19
2017-05-08T09:28:40.376Z,36.8
2017-05-08T09:29:50.290Z,37.1
2017-05-08T09:31:00.505Z,37
2017-05-08T09:32:10.727Z,37
2017-05-08T09:33:20.026Z,36.9
2017-05-08T09:34:29.317Z,37.1
2017-05-08T09:35:38.920Z,37
2017-05-08T09:36:48.941Z,37
2017-05-08T09:37:58.556Z,36.9
2017-05-08T09:39:08.173Z,36.9
2017-05-08T09:40:18.399Z,37.1
2017-05-08T09:41:28.316Z,37.1
2017-05-08T09:42:38.485Z,37
2017-05-08T09:43:48.092Z,37.1
2017-05-08T09:44:58.017Z,37.1
2017-05-08T09:46:07.923Z,37.1
2017-05-08T09:47:17.876Z,37.1
2017-05-08T09:48:27.943Z,36.8
2017-05-08T09:49:37.595Z,36.8
2017-05-08T09:50:47.512Z,36.61
2017-05-08T09:51:57.422Z,36.71
2017-05-08T09:53:07.016Z,36.9
2017-05-08T09:54:17.333Z,36.9
2017-05-08T09:55:27.244Z,36.71
2017-05-08T09:56:37.471Z,36.8
2017-05-08T09:57:47.392Z,36.61
2017-05-08T09:58:57.306Z,36.61
2017-05-08T10:00:06.871Z,36.61
2017-05-08T10:01:16.781Z,36.8
2017-05-08T10:02:26.995Z,36.71
2017-05-08T10:03:36.903Z,36.8
2017-05-08T10:04:46.517Z,36.8
2017-05-08T10:05:56.425Z,36.8
2017-05-08T10:07:06.646Z,36.8
2017-05-08T10:08:16.877Z,36.71
2017-05-08T10:09:27.166Z,36.8
2017-05-08T10:10:37.084Z,36.71
2017-05-08T10:11:46.348Z,36.8
2017-05-08T10:12:56.264Z,36.8
2017-05-08T10:14:06.493Z,36.71
2017-05-08T10:15:16.415Z,36.8
2017-05-08T10:16:26.624Z,36.71
2017-05-08T10:17:36.943Z,36.71
2017-05-08T10:18:46.853Z,36.71
2017-05-08T10:19:56.457Z,36.71
2017-05-08T10:21:06.680Z,36.61
2017-05-08T10:22:16.591Z,36.71
2017-05-08T10:23:26.197Z,36.71
2017-05-08T10:24:35.804Z,36.71
2017-05-08T10:25:46.031Z,36.8
2017-05-08T10:26:55.338Z,36.71
2017-05-08T10:28:05.256Z,36.71
2017-05-08T10:29:15.524Z,36.71
2017-05-08T10:30:24.822Z,36.71
2017-05-08T10:31:35.059Z,36.61
2017-05-08T10:32:44.981Z,36.71
2017-05-08T10:33:54.597Z,36.71
2017-05-08T10:35:04.356Z,36.71
2017-05-08T10:36:14.322Z,36.8
2017-05-08T10:37:24.222Z,36.71
2017-05-08T10:38:34.127Z,36.8
2017-05-08T10:39:43.734Z,36.71
2017-05-08T10:40:53.812Z,36.61
2017-05-08T10:42:04.038Z,36.71
2017-05-08T10:43:14.270Z,36.71
2017-05-08T10:44:24.485Z,36.8
2017-05-08T10:45:34.720Z,36.8
2017-05-08T10:46:44.438Z,36.61
2017-05-08T10:47:54.677Z,36.61
2017-05-08T10:49:04.596Z,36.71
2017-05-08T10:50:14.511Z,36.71
2017-05-08T10:51:24.423Z,36.71
2017-05-08T10:52:34.791Z,36.61
2017-05-08T10:53:44.708Z,36.71
2017-05-08T10:54:54.939Z,36.71
2017-05-08T10:56:04.851Z,36.32
2017-05-08T10:57:15.071Z,36.71
2017-05-08T10:58:25.388Z,36.61
2017-05-08T10:59:34.998Z,36.52
2017-05-08T11:00:44.291Z,36.52
2017-05-08T11:01:54.509Z,36.52
2017-05-08T11:03:04.447Z,36.52
2017-05-08T11:04:14.666Z,36.52
2017-05-08T11:05:24.271Z,36.42
2017-05-08T11:06:33.906Z,36.52
2017-05-08T11:07:44.132Z,36.52
2017-05-08T11:08:53.742Z,36.42
2017-05-08T11:10:04.268Z,36.52
2017-05-08T11:11:13.563Z,36.42
2017-05-08T11:12:23.167Z,36.52
2017-05-08T11:13:33.380Z,36.42
2017-05-08T11:14:42.997Z,36.22
2017-05-08T11:15:53.014Z,36.22
2017-05-08T11:17:02.310Z,36.13
2017-05-08T11:18:12.217Z,36.32
2017-05-08T11:19:22.162Z,36.22
2017-05-08T11:20:32.392Z,36.13
2017-05-08T11:21:42.557Z,36.22
2017-05-08T11:22:52.471Z,36.13
2017-05-08T11:24:01.763Z,36.32
2017-05-08T11:25:11.695Z,36.22
2017-05-08T11:26:21.928Z,36.32
2017-05-08T11:27:32.533Z,35.94
2017-05-08T11:28:42.451Z,36.32
2017-05-08T11:29:51.756Z,36.32
2017-05-08T11:31:01.349Z,36.32
2017-05-08T11:32:11.263Z,36.22
2017-05-08T11:33:21.529Z,36.22
2017-05-08T11:34:31.776Z,36.32
2017-05-08T11:35:41.679Z,36.22
2017-05-08T11:36:51.282Z,36.32
2017-05-08T11:38:00.589Z,36.32
2017-05-08T11:39:10.893Z,36.22
2017-05-08T11:40:20.496Z,36.22
2017-05-08T11:41:30.409Z,36.32
2017-05-08T11:42:40.632Z,36.32
2017-05-08T11:43:50.244Z,36.42
2017-05-08T11:45:00.469Z,36.32
2017-05-08T11:46:10.085Z,36.42
2017-05-08T11:47:19.085Z,36.22
2017-05-08T11:48:28.989Z,36.32
2017-05-08T11:49:39.212Z,36.22
2017-05-08T11:50:48.969Z,36.22
2017-05-08T11:51:58.577Z,36.13
2017-05-08T11:53:08.494Z,36.32
2017-05-08T11:54:18.714Z,36.22
2017-05-08T11:55:28.935Z,36.13
2017-05-08T11:56:39.455Z,36.13
2017-05-08T11:57:49.375Z,36.13
2017-05-08T11:58:58.979Z,35.94
2017-05-08T12:00:09.212Z,35.94
2017-05-08T12:01:18.833Z,35.84
2017-05-08T12:02:29.099Z,35.84
2017-05-08T12:03:39.320Z,35.94
2017-05-08T12:04:48.956Z,35.94
2017-05-08T12:05:59.179Z,35.94
2017-05-08T12:07:09.427Z,35.84
2017-05-08T12:08:19.489Z,36.03
2017-05-08T12:09:29.404Z,35.84
2017-05-08T12:10:39.029Z,35.74
2017-05-08T12:11:48.632Z,35.84
2017-05-08T12:12:58.246Z,35.84
2017-05-08T12:14:08.265Z,35.84
2017-05-08T12:15:18.177Z,35.84
2017-05-08T12:16:28.401Z,35.84
2017-05-08T12:17:38.004Z,35.94
2017-05-08T12:18:47.312Z,36.03
2017-05-08T12:19:57.020Z,36.13
2017-05-08T12:21:06.309Z,36.03
2017-05-08T12:22:15.919Z,35.84
2017-05-08T12:23:25.833Z,35.94
2017-05-08T12:24:35.457Z,36.03
2017-05-08T12:25:44.768Z,36.13
2017-05-08T12:26:55.007Z,35.94
2017-05-08T12:28:04.387Z,36.03
2017-05-08T12:29:14.629Z,35.84
2017-05-08T12:30:24.231Z,36.03
2017-05-08T12:31:34.448Z,36.03
2017-05-08T12:32:44.367Z,36.32
2017-05-08T12:33:53.981Z,36.13
2017-05-08T12:35:04.195Z,36.21
2017-05-08T12:36:13.498Z,36.11
2017-05-08T12:37:24.015Z,36.11
2017-05-08T12:38:34.247Z,36.22
2017-05-08T12:39:44.166Z,36.3
2017-05-08T12:40:54.088Z,36.4
2017-05-08T12:42:04.008Z,36.21
2017-05-08T12:43:13.864Z,36.3
2017-05-08T12:44:23.484Z,36.5
2017-05-08T12:45:33.704Z,36.4
2017-05-08T12:46:43.619Z,36.5
2017-05-08T12:47:53.841Z,36.01
2017-05-08T12:49:04.060Z,36.4
2017-05-08T12:50:13.992Z,36.4
2017-05-08T12:51:23.900Z,36.4
2017-05-08T12:52:34.109Z,36.21
2017-05-08T12:53:44.319Z,36.5
2017-05-08T12:54:54.263Z,36.5
2017-05-08T12:56:04.190Z,36.21
2017-05-08T12:57:13.807Z,36.3
2017-05-08T12:58:23.419Z,36.4
2017-05-08T12:59:33.026Z,36.4
2017-05-08T13:00:42.170Z,36.5
2017-05-08T13:01:52.385Z,36.4
2017-05-08T13:03:02.597Z,36.3
2017-05-08T13:04:11.897Z,36.21
2017-05-08T13:05:21.815Z,36.11
2017-05-08T13:06:32.322Z,36.4
2017-05-08T13:07:42.546Z,36.21
2017-05-08T13:08:52.449Z,36.4
2017-05-08T13:10:02.356Z,36.21
2017-05-08T13:11:11.957Z,36.01
2017-05-08T13:12:22.436Z,36.4
2017-05-08T13:13:32.662Z,36.3
2017-05-08T13:14:42.909Z,36.4
2017-05-08T13:15:53.142Z,36.4
2017-05-08T13:17:03.374Z,36.4
2017-05-08T13:18:13.222Z,36.5
2017-05-08T13:19:23.131Z,36.4
2017-05-08T13:20:32.734Z,36.5
2017-05-08T13:21:42.641Z,36.4
2017-05-08T13:22:52.874Z,36.4
2017-05-08T13:24:02.933Z,36.5
2017-05-08T13:25:13.527Z,36.4
2017-05-08T13:26:23.130Z,36.5
2017-05-08T13:27:33.353Z,36.3
2017-05-08T13:28:43.582Z,36.4
2017-05-08T13:29:53.493Z,36.3
2017-05-08T13:31:03.721Z,36.3
2017-05-08T13:32:13.028Z,36.4
2017-05-08T13:33:22.992Z,36.3
2017-05-08T13:34:32.899Z,36.21
2017-05-08T13:35:43.071Z,36.21
2017-05-08T13:36:53.282Z,36.21
2017-05-08T13:38:02.891Z,36.3
2017-05-08T13:39:12.499Z,36.01
2017-05-08T13:40:22.414Z,36.11
2017-05-08T13:41:32.489Z,36.21
2017-05-08T13:42:42.711Z,36.3
2017-05-08T13:43:52.930Z,36.21
2017-05-08T13:45:02.864Z,36.21
2017-05-08T13:46:12.474Z,36.3
2017-05-08T13:47:22.636Z,36.11
2017-05-08T13:48:32.241Z,36.21
2017-05-08T13:49:42.170Z,36.4
2017-05-08T13:50:52.074Z,36.4
2017-05-08T13:52:01.370Z,36.3
2017-05-08T13:53:11.228Z,36.3
2017-05-08T13:54:21.152Z,36.21
2017-05-08T13:55:31.099Z,36.21
2017-05-08T13:56:40.700Z,36.21
2017-05-08T13:57:50.626Z,36.21
2017-05-08T13:59:00.697Z,36.21
2017-05-08T14:00:10.914Z,36.11
2017-05-08T14:01:20.524Z,36.21
2017-05-08T14:02:30.744Z,36.3
2017-05-08T14:03:40.970Z,36.3
2017-05-08T14:04:50.727Z,36.3
2017-05-08T14:06:00.335Z,36.29
2017-05-08T14:07:09.941Z,36.3
2017-05-08T14:08:19.541Z,36.29
2017-05-08T14:09:29.751Z,36.48
2017-05-08T14:10:39.381Z,36.19
2017-05-08T14:11:49.607Z,36.38
2017-05-08T14:12:59.834Z,36.48
2017-05-08T14:14:09.438Z,36.38
2017-05-08T14:15:19.358Z,36.38
2017-05-08T14:16:29.814Z,36.38
2017-05-08T14:17:39.426Z,36.38
2017-05-08T14:18:49.654Z,36.38
2017-05-08T14:19:59.575Z,36.38
2017-05-08T14:21:09.486Z,36.38
2017-05-08T14:22:19.354Z,36.19
2017-05-08T14:23:29.575Z,36.29
2017-05-08T14:24:38.878Z,36.29
2017-05-08T14:25:48.794Z,36.19
2017-05-08T14:26:58.121Z,36.38
2017-05-08T14:28:07.876Z,36.38
2017-05-08T14:29:17.793Z,36.19
2017-05-08T14:30:27.716Z,36.29
2017-05-08T14:31:37.025Z,36.38
2017-05-08T14:32:46.939Z,36.19
2017-05-08T14:33:57.146Z,36.19
2017-05-08T14:35:07.377Z,36.19
2017-05-08T14:36:17.320Z,36.29
2017-05-08T14:37:26.929Z,36.29
2017-05-08T14:38:36.626Z,36.29
2017-05-08T14:39:46.339Z,36.29
2017-05-08T14:40:56.275Z,36.19
2017-05-08T14:42:06.298Z,36.29
2017-05-08T14:43:16.523Z,36.38
2017-05-08T14:44:26.449Z,36.21
2017-05-08T14:45:36.673Z,36.21
2017-05-08T14:46:46.293Z,36.21
2017-05-08T14:47:56.519Z,35.9
2017-05-08T14:49:06.129Z,35.92
2017-05-08T14:50:16.050Z,36.19
2017-05-08T14:51:26.264Z,36.11
2017-05-08T14:52:35.869Z,36.01
2017-05-08T14:53:45.809Z,35.82
2017-05-08T14:54:55.415Z,36.01
2017-05-08T14:56:05.012Z,35.9
2017-05-08T14:57:14.923Z,36.01
2017-05-08T14:58:24.856Z,36.01
2017-05-08T14:59:34.778Z,35.82
2017-05-08T15:00:44.384Z,35.92
2017-05-08T15:01:53.981Z,36
2017-05-08T15:03:04.554Z,35.92
2017-05-08T15:04:14.474Z,35.72
2017-05-08T15:05:24.391Z,35.82
2017-05-08T15:06:34.306Z,36.01